createdAt,value
2022-11-27T00:00:39.880Z,100877.72
2022-11-27T00:02:42.062Z,100877.72
2022-11-27T00:04:44.593Z,100875.97
2022-11-27T00:06:46.764Z,100877.75
2022-11-27T00:08:49.808Z,100874.16
2022-11-27T00:10:52.564Z,100878.63
2022-11-27T00:12:56.046Z,100866.16
2022-11-27T00:14:58.133Z,100875.94
2022-11-27T00:17:01.256Z,100882.19
2022-11-27T00:19:03.493Z,100872.41
2022-11-27T00:21:08.411Z,100877.72
2022-11-27T00:23:10.928Z,100874.19
2022-11-27T00:25:12.942Z,100882.19
2022-11-27T00:27:15.057Z,100870.63
2022-11-27T00:29:17.129Z,100869.72
2022-11-27T00:31:22.257Z,100877.72
2022-11-27T00:33:24.912Z,100867.94
2022-11-27T00:35:26.958Z,100878.63
2022-11-27T00:37:29.052Z,100869.72
2022-11-27T00:39:31.276Z,100882.19
2022-11-27T00:41:33.615Z,100883.94
2022-11-27T00:43:44.237Z,100887.53
2022-11-27T00:45:50.209Z,100878.63
2022-11-27T00:47:52.121Z,100874.19
2022-11-27T00:49:54.495Z,100865.28
2022-11-27T00:51:56.386Z,100872.41
2022-11-27T00:53:58.714Z,100871.53
2022-11-27T00:56:00.932Z,100862.66
2022-11-27T00:58:03.150Z,100863.50
2022-11-27T01:00:07.046Z,100867.09
2022-11-27T01:02:11.965Z,100867.97
2022-11-27T01:04:15.938Z,100875.06
2022-11-27T01:06:19.915Z,100867.09
2022-11-27T01:08:22.211Z,100869.78
2022-11-27T01:10:24.438Z,100872.44
2022-11-27T01:12:26.508Z,100874.19
2022-11-27T01:14:28.606Z,100874.19
2022-11-27T01:16:33.272Z,100877.78
2022-11-27T01:18:37.259Z,100871.53
2022-11-27T01:20:40.900Z,100874.22
2022-11-27T01:22:42.949Z,100864.41
2022-11-27T01:24:45.349Z,100868.84
2022-11-27T01:26:47.575Z,100867.09
2022-11-27T01:28:53.309Z,100859.97
2022-11-27T01:30:56.311Z,100867.09
2022-11-27T01:32:58.324Z,100868.00
2022-11-27T01:35:00.326Z,100872.44
2022-11-27T01:37:03.391Z,100870.63
2022-11-27T01:39:05.691Z,100870.66
2022-11-27T01:41:17.920Z,100867.97
2022-11-27T01:43:38.107Z,100869.78
2022-11-27T01:45:40.274Z,100866.19
2022-11-27T01:47:55.376Z,100864.41
2022-11-27T01:50:21.621Z,100865.28
2022-11-27T01:52:30.131Z,100866.19
2022-11-27T01:54:58.603Z,100868.84
2022-11-27T01:57:07.237Z,100868.00
2022-11-27T01:59:09.545Z,100862.63
2022-11-27T02:01:11.574Z,100871.53
2022-11-27T02:03:13.711Z,100870.63
2022-11-27T02:05:22.175Z,100862.59
2022-11-27T02:07:24.885Z,100866.19
2022-11-27T02:09:29.957Z,100867.06
2022-11-27T02:11:42.591Z,100856.38
2022-11-27T02:13:52.707Z,100865.31
2022-11-27T02:16:24.545Z,100867.97
2022-11-27T02:18:57.823Z,100867.97
2022-11-27T02:21:27.732Z,100867.97
2022-11-27T02:23:35.642Z,100858.16
2022-11-27T02:25:49.766Z,100859.03
2022-11-27T02:28:12.367Z,100856.38
2022-11-27T02:30:14.838Z,100859.06
2022-11-27T02:32:43.162Z,100855.50
2022-11-27T02:35:00.366Z,100856.38
2022-11-27T02:37:14.025Z,100860.84
2022-11-27T02:39:22.407Z,100860.84
2022-11-27T02:41:30.600Z,100868.84
2022-11-27T02:43:45.489Z,100869.75
2022-11-27T02:45:51.480Z,100875.06
2022-11-27T02:47:56.236Z,100875.97
2022-11-27T02:50:00.309Z,100875.06
2022-11-27T02:52:04.130Z,100881.28
2022-11-27T02:54:12.365Z,100881.31
2022-11-27T02:56:18.834Z,100883.06
2022-11-27T02:58:25.306Z,100886.66
2022-11-27T03:00:28.883Z,100887.53
2022-11-27T03:02:42.078Z,100886.66
2022-11-27T03:04:50.197Z,100879.50
2022-11-27T03:06:58.305Z,100872.41
2022-11-27T03:09:03.556Z,100875.97
2022-11-27T03:11:09.477Z,100874.19
2022-11-27T03:13:12.064Z,100875.97
2022-11-27T03:15:14.536Z,100870.63
2022-11-27T03:17:56.868Z,100879.50
2022-11-27T03:20:16.766Z,100877.72
2022-11-27T03:22:19.284Z,100882.19
2022-11-27T03:24:21.624Z,100879.53
2022-11-27T03:26:23.883Z,100880.41
2022-11-27T03:28:28.812Z,100891.09
2022-11-27T03:30:31.636Z,100879.50
2022-11-27T03:32:34.926Z,100875.97
2022-11-27T03:34:37.662Z,100879.53
2022-11-27T03:36:40.040Z,100871.50
2022-11-27T03:38:43.824Z,100880.41
2022-11-27T03:40:56.326Z,100874.16
2022-11-27T03:43:13.756Z,100869.72
2022-11-27T03:45:21.688Z,100874.19
2022-11-27T03:47:38.789Z,100874.16
2022-11-27T03:50:11.397Z,100872.38
2022-11-27T03:52:27.875Z,100880.41
2022-11-27T03:54:32.829Z,100874.16
2022-11-27T03:56:49.207Z,100875.06
2022-11-27T03:59:23.258Z,100875.06
2022-11-27T04:01:27.433Z,100862.59
2022-11-27T04:03:32.008Z,100865.28
2022-11-27T04:05:34.239Z,100870.63
2022-11-27T04:07:36.735Z,100870.63
2022-11-27T04:09:38.790Z,100866.16
2022-11-27T04:11:40.785Z,100867.94
2022-11-27T04:13:43.221Z,100859.91
2022-11-27T04:15:48.722Z,100859.03
2022-11-27T04:17:50.958Z,100856.38
2022-11-27T04:19:53.135Z,100852.81
2022-11-27T04:21:55.455Z,100851.91
2022-11-27T04:23:57.417Z,100845.69
2022-11-27T04:25:59.526Z,100851.91
2022-11-27T04:28:01.614Z,100849.25
2022-11-27T04:30:04.528Z,100851.91
2022-11-27T04:32:06.992Z,100851.00
2022-11-27T04:34:09.136Z,100851.91
2022-11-27T04:36:11.173Z,100845.66
2022-11-27T04:38:13.835Z,100844.78
2022-11-27T04:40:16.502Z,100850.13
2022-11-27T04:42:18.652Z,100850.09
2022-11-27T04:44:24.627Z,100846.53
2022-11-27T04:46:27.057Z,100844.78
2022-11-27T04:48:29.227Z,100849.22
2022-11-27T04:50:31.349Z,100847.44
2022-11-27T04:52:33.615Z,100850.09
2022-11-27T04:54:38.321Z,100859.88
2022-11-27T04:56:40.437Z,100856.34
2022-11-27T04:58:42.544Z,100862.59
2022-11-27T05:00:44.744Z,100859.88
2022-11-27T05:02:49.484Z,100850.09
2022-11-27T05:04:51.477Z,100855.44
2022-11-27T05:06:53.604Z,100863.47
2022-11-27T05:09:02.281Z,100863.44
2022-11-27T05:11:11.529Z,100865.28
2022-11-27T05:13:13.705Z,100859.03
2022-11-27T05:15:16.142Z,100856.38
2022-11-27T05:17:18.277Z,100846.53
2022-11-27T05:19:22.555Z,100856.34
2022-11-27T05:21:24.721Z,100854.56
2022-11-27T05:23:27.353Z,100851.00
2022-11-27T05:25:29.439Z,100857.22
2022-11-27T05:27:31.557Z,100852.78
2022-11-27T05:29:33.812Z,100856.34
2022-11-27T05:31:36.819Z,100857.22
2022-11-27T05:33:41.419Z,100857.22
2022-11-27T05:35:43.377Z,100859.91
2022-11-27T05:37:45.611Z,100859.00
2022-11-27T05:39:47.775Z,100855.44
2022-11-27T05:41:49.860Z,100864.31
2022-11-27T05:43:52.155Z,100863.44
2022-11-27T05:45:54.250Z,100867.00
2022-11-27T05:47:56.379Z,100869.66
2022-11-27T05:49:58.547Z,100866.97
2022-11-27T05:52:00.977Z,100875.88
2022-11-27T05:54:02.978Z,100871.44
2022-11-27T05:56:08.351Z,100871.44
2022-11-27T05:58:10.428Z,100867.91
2022-11-27T06:00:13.247Z,100869.66
2022-11-27T06:02:20.848Z,100878.59
2022-11-27T06:04:26.039Z,100866.09
2022-11-27T06:06:28.574Z,100878.53
2022-11-27T06:08:30.784Z,100873.22
2022-11-27T06:10:33.337Z,100874.09
2022-11-27T06:12:35.552Z,100879.47
2022-11-27T06:14:38.034Z,100873.22
2022-11-27T06:16:40.348Z,100870.53
2022-11-27T06:18:43.491Z,100868.75
2022-11-27T06:20:52.795Z,100877.66
2022-11-27T06:22:57.229Z,100875.88
2022-11-27T06:24:59.341Z,100888.34
2022-11-27T06:27:01.423Z,100875.88
2022-11-27T06:29:03.538Z,100874.06
2022-11-27T06:31:07.638Z,100875.84
2022-11-27T06:33:10.126Z,100877.63
2022-11-27T06:35:14.749Z,100880.31
2022-11-27T06:37:17.141Z,100879.44
2022-11-27T06:39:20.130Z,100882.97
2022-11-27T06:41:27.562Z,100885.66
2022-11-27T06:43:30.893Z,100879.41
2022-11-27T06:45:33.251Z,100877.59
2022-11-27T06:47:35.365Z,100871.34
2022-11-27T06:49:37.652Z,100879.38
2022-11-27T06:51:40.041Z,100882.03
2022-11-27T06:53:42.576Z,100871.38
2022-11-27T06:55:44.928Z,100874.00
2022-11-27T06:57:49.882Z,100872.28
2022-11-27T06:59:52.018Z,100868.69
2022-11-27T07:01:54.237Z,100866.00
2022-11-27T07:03:57.243Z,100859.75
2022-11-27T07:06:03.821Z,100867.78
2022-11-27T07:08:06.110Z,100868.63
2022-11-27T07:10:08.913Z,100871.31
2022-11-27T07:12:11.325Z,100861.47
2022-11-27T07:14:13.601Z,100867.72
2022-11-27T07:16:16.899Z,100870.38
2022-11-27T07:18:19.017Z,100872.19
2022-11-27T07:20:21.235Z,100872.19
2022-11-27T07:22:23.271Z,100873.03
2022-11-27T07:24:25.327Z,100865.03
2022-11-27T07:26:30.657Z,100869.47
2022-11-27T07:28:32.745Z,100871.25
2022-11-27T07:30:34.861Z,100859.63
2022-11-27T07:32:36.735Z,100867.66
2022-11-27T07:34:39.010Z,100865.81
2022-11-27T07:36:41.227Z,100865.81
2022-11-27T07:38:44.084Z,100864.00
2022-11-27T07:40:45.994Z,100872.91
2022-11-27T07:42:48.250Z,100867.53
2022-11-27T07:44:52.535Z,100872.88
2022-11-27T07:46:54.764Z,100873.88
2022-11-27T07:48:59.517Z,100872.09
2022-11-27T07:51:01.785Z,100872.97
2022-11-27T07:53:03.804Z,100870.28
2022-11-27T07:55:06.064Z,100867.53
2022-11-27T07:57:08.376Z,100870.19
2022-11-27T07:59:13.437Z,100859.56
2022-11-27T08:01:17.967Z,100864.84
2022-11-27T08:03:19.964Z,100868.38
2022-11-27T08:05:22.194Z,100870.16
2022-11-27T08:07:29.497Z,100866.53
2022-11-27T08:09:31.573Z,100862.06
2022-11-27T08:11:35.376Z,100862.94
2022-11-27T08:13:37.682Z,100864.75
2022-11-27T08:15:39.774Z,100876.31
2022-11-27T08:17:44.983Z,100867.38
2022-11-27T08:19:47.010Z,100870.06
2022-11-27T08:21:49.009Z,100870.03
2022-11-27T08:23:50.978Z,100866.50
2022-11-27T08:25:52.815Z,100862.03
2022-11-27T08:27:54.936Z,100865.63
2022-11-27T08:29:56.750Z,100867.44
2022-11-27T08:31:58.845Z,100869.22
2022-11-27T08:34:00.876Z,100868.31
2022-11-27T08:36:03.436Z,100866.47
2022-11-27T08:38:05.522Z,100869.09
2022-11-27T08:40:08.529Z,100873.63
2022-11-27T08:42:10.351Z,100869.13
2022-11-27T08:44:12.457Z,100872.59
2022-11-27T08:46:14.489Z,100871.66
2022-11-27T08:48:17.087Z,100876.13
2022-11-27T08:50:19.310Z,100875.25
2022-11-27T08:52:23.728Z,100877.13
2022-11-27T08:54:25.890Z,100877.06
2022-11-27T08:56:28.448Z,100870.78
2022-11-27T08:58:33.668Z,100875.28
2022-11-27T09:00:37.318Z,100870.78
2022-11-27T09:02:39.532Z,100871.66
2022-11-27T09:04:41.876Z,100857.38
2022-11-27T09:06:44.132Z,100869.88
2022-11-27T09:08:46.201Z,100865.41
2022-11-27T09:10:48.651Z,100858.16
2022-11-27T09:12:50.936Z,100868.81
2022-11-27T09:14:53.224Z,100857.19
2022-11-27T09:16:55.461Z,100854.50
2022-11-27T09:18:58.614Z,100857.97
2022-11-27T09:21:07.544Z,100849.06
2022-11-27T09:23:14.380Z,100854.34
2022-11-27T09:25:17.284Z,100857.88
2022-11-27T09:27:19.350Z,100856.91
2022-11-27T09:29:21.884Z,100862.25
2022-11-27T09:31:24.348Z,100868.41
2022-11-27T09:33:28.702Z,100868.38
2022-11-27T09:35:30.737Z,100863.97
2022-11-27T09:37:33.306Z,100859.41
2022-11-27T09:39:36.110Z,100854.06
2022-11-27T09:41:51.794Z,100848.59
2022-11-27T09:43:58.166Z,100847.56
2022-11-27T09:46:09.309Z,100852.94
2022-11-27T09:48:19.040Z,100845.81
2022-11-27T09:50:28.840Z,100835.94
2022-11-27T09:52:41.869Z,100833.19
2022-11-27T09:54:55.785Z,100836.66
2022-11-27T09:57:00.985Z,100829.47
2022-11-27T09:59:09.274Z,100841.03
2022-11-27T10:01:11.706Z,100832.00
2022-11-27T10:03:15.912Z,100840.03
2022-11-27T10:05:24.468Z,100833.72
2022-11-27T10:07:52.326Z,100826.53
2022-11-27T10:10:08.904Z,100823.81
2022-11-27T10:12:30.426Z,100823.81
2022-11-27T10:14:49.681Z,100821.03
2022-11-27T10:17:00.082Z,100817.34
2022-11-27T10:19:09.273Z,100818.22
2022-11-27T10:21:39.408Z,100812.84
2022-11-27T10:23:46.482Z,100817.28
2022-11-27T10:25:50.993Z,100813.66
2022-11-27T10:28:30.636Z,100802.00
2022-11-27T10:30:39.673Z,100804.63
2022-11-27T10:32:58.469Z,100809.06
2022-11-27T10:35:12.473Z,100807.25
2022-11-27T10:37:17.976Z,100806.38
2022-11-27T10:39:33.098Z,100807.19
2022-11-27T10:41:49.339Z,100799.94
2022-11-27T10:43:57.278Z,100799.03
2022-11-27T10:46:19.243Z,100795.38
2022-11-27T10:48:24.396Z,100793.47
2022-11-27T10:50:26.551Z,100790.78
2022-11-27T10:52:28.678Z,100788.97
2022-11-27T10:54:34.711Z,100789.84
2022-11-27T10:57:00.795Z,100783.53
2022-11-27T10:59:35.025Z,100783.50
2022-11-27T11:01:49.727Z,100782.53
2022-11-27T11:04:18.675Z,100784.31
2022-11-27T11:06:27.771Z,100784.25
2022-11-27T11:08:30.276Z,100786.84
2022-11-27T11:10:44.799Z,100780.59
2022-11-27T11:12:47.057Z,100784.03
2022-11-27T11:14:59.339Z,100784.03
2022-11-27T11:17:01.502Z,100783.97
2022-11-27T11:19:04.132Z,100781.22
2022-11-27T11:21:07.929Z,100774.97
2022-11-27T11:23:27.386Z,100778.53
2022-11-27T11:25:29.707Z,100772.13
2022-11-27T11:27:32.476Z,100777.44
2022-11-27T11:29:47.252Z,100766.66
2022-11-27T11:31:52.603Z,100772.88
2022-11-27T11:34:25.106Z,100770.19
2022-11-27T11:36:27.249Z,100769.28
2022-11-27T11:38:32.487Z,100770.25
2022-11-27T11:40:36.891Z,100765.69
2022-11-27T11:42:50.931Z,100764.78
2022-11-27T11:44:56.182Z,100754.03
2022-11-27T11:46:58.619Z,100752.22
2022-11-27T11:49:18.450Z,100755.94
2022-11-27T11:51:38.951Z,100758.63
2022-11-27T11:53:50.359Z,100753.25
2022-11-27T11:56:17.115Z,100758.59
2022-11-27T11:58:46.410Z,100761.25
2022-11-27T12:03:41.564Z,100762.88
2022-11-27T12:05:46.747Z,100759.28
2022-11-27T12:08:15.328Z,100754.84
2022-11-27T12:10:20.271Z,100753.03
2022-11-27T12:12:50.176Z,100755.78
2022-11-27T12:14:58.103Z,100756.66
2022-11-27T12:17:38.795Z,100750.56
2022-11-27T12:20:02.604Z,100754.91
2022-11-27T12:22:40.487Z,100751.44
2022-11-27T12:25:10.829Z,100752.44
2022-11-27T12:27:38.520Z,100750.72
2022-11-27T12:30:12.328Z,100748.97
2022-11-27T12:32:40.931Z,100745.47
2022-11-27T12:35:01.615Z,100742.78
2022-11-27T12:37:48.193Z,100740.19
2022-11-27T12:39:50.522Z,100740.97
2022-11-27T12:42:27.780Z,100740.16
2022-11-27T12:44:51.429Z,100741.97
2022-11-27T12:47:25.612Z,100733.78
2022-11-27T12:49:46.521Z,100739.19
2022-11-27T12:51:54.323Z,100735.72
2022-11-27T12:54:03.334Z,100734.00
2022-11-27T12:56:17.297Z,100731.44
2022-11-27T12:58:27.634Z,100728.59
2022-11-27T13:00:32.174Z,100734.13
2022-11-27T13:03:11.096Z,100730.66
2022-11-27T13:05:26.924Z,100727.84
2022-11-27T13:07:40.426Z,100728.63
2022-11-27T13:10:06.068Z,100725.28
2022-11-27T13:12:11.666Z,100722.47
2022-11-27T13:14:18.628Z,100718.91
2022-11-27T13:16:32.925Z,100719.84
2022-11-27T13:18:46.547Z,100724.41
2022-11-27T13:20:52.767Z,100720.75
2022-11-27T13:22:55.137Z,100720.75
2022-11-27T13:25:01.737Z,100716.25
2022-11-27T13:27:13.036Z,100719.03
2022-11-27T13:29:33.505Z,100720.88
2022-11-27T13:31:39.564Z,100718.19
2022-11-27T13:33:44.904Z,100720.94
2022-11-27T13:35:50.834Z,100723.66
2022-11-27T13:38:07.883Z,100718.34
2022-11-27T13:40:13.085Z,100720.00
2022-11-27T13:42:22.591Z,100717.34
2022-11-27T13:44:30.494Z,100713.81
2022-11-27T13:46:45.696Z,100710.25
2022-11-27T13:49:03.884Z,100720.13
2022-11-27T13:51:08.586Z,100720.13
2022-11-27T13:53:12.811Z,100712.88
2022-11-27T13:55:30.842Z,100718.41
2022-11-27T13:57:36.730Z,100725.50
2022-11-27T13:59:39.637Z,100718.34
2022-11-27T14:01:55.684Z,100725.63
2022-11-27T14:04:08.770Z,100722.09
2022-11-27T14:06:30.880Z,100719.44
2022-11-27T14:08:35.857Z,100722.09
2022-11-27T14:10:50.312Z,100714.91
2022-11-27T14:12:57.009Z,100717.59
2022-11-27T14:15:10.522Z,100720.34
2022-11-27T14:17:34.219Z,100715.97
2022-11-27T14:19:45.735Z,100722.28
2022-11-27T14:21:48.472Z,100716.97
2022-11-27T14:23:52.939Z,100717.78
2022-11-27T14:26:15.683Z,100718.94
2022-11-27T14:28:26.452Z,100717.16
2022-11-27T14:30:40.184Z,100717.97
2022-11-27T14:32:42.710Z,100726.03
2022-11-27T14:34:47.250Z,100714.38
2022-11-27T14:36:52.820Z,100710.91
2022-11-27T14:38:54.834Z,100717.09
2022-11-27T14:41:18.427Z,100723.34
2022-11-27T14:43:26.363Z,100719.72
2022-11-27T14:45:30.424Z,100718.91
2022-11-27T14:47:32.910Z,100712.72
2022-11-27T14:49:35.017Z,100719.03
2022-11-27T14:51:38.769Z,100718.22
2022-11-27T14:53:41.772Z,100711.88
2022-11-27T14:55:44.347Z,100718.09
2022-11-27T14:57:49.195Z,100713.69
2022-11-27T15:00:16.859Z,100717.53
2022-11-27T15:02:23.337Z,100713.84
2022-11-27T15:04:36.076Z,100717.59
2022-11-27T15:06:46.370Z,100719.41
2022-11-27T15:09:02.942Z,100716.69
2022-11-27T15:11:35.915Z,100716.94
2022-11-27T15:13:39.004Z,100709.59
2022-11-27T15:15:45.101Z,100714.06
2022-11-27T15:17:51.701Z,100716.72
2022-11-27T15:19:55.668Z,100710.41
2022-11-27T15:21:58.652Z,100707.78
2022-11-27T15:24:01.576Z,100705.97
2022-11-27T15:26:16.048Z,100708.75
2022-11-27T15:28:42.052Z,100703.34
2022-11-27T15:30:45.466Z,100711.44
2022-11-27T15:32:56.379Z,100709.66
2022-11-27T15:34:58.327Z,100706.91
2022-11-27T15:37:06.558Z,100708.66
2022-11-27T15:39:25.895Z,100708.72
2022-11-27T15:41:32.325Z,100705.16
2022-11-27T15:43:34.540Z,100707.94
2022-11-27T15:45:36.765Z,100701.66
2022-11-27T15:47:44.383Z,100701.72
2022-11-27T15:49:46.508Z,100703.53
2022-11-27T15:51:48.707Z,100705.25
2022-11-27T15:53:51.088Z,100703.47
2022-11-27T15:55:53.386Z,100701.72
2022-11-27T15:57:55.355Z,100709.75
2022-11-27T15:59:57.767Z,100711.56
2022-11-27T16:02:00.116Z,100702.72
2022-11-27T16:04:02.688Z,100695.53
2022-11-27T16:06:05.949Z,100691.97
2022-11-27T16:08:11.280Z,100699.19
2022-11-27T16:10:13.746Z,100690.31
2022-11-27T16:12:15.865Z,100695.59
2022-11-27T16:14:18.130Z,100692.09
2022-11-27T16:16:20.377Z,100692.97
2022-11-27T16:18:25.502Z,100687.59
2022-11-27T16:20:27.758Z,100689.34
2022-11-27T16:22:29.620Z,100692.09
2022-11-27T16:24:31.971Z,100685.84
2022-11-27T16:26:34.582Z,100688.63
2022-11-27T16:28:36.792Z,100683.25
2022-11-27T16:30:39.033Z,100689.63
2022-11-27T16:32:41.547Z,100692.25
2022-11-27T16:34:43.684Z,100682.47
2022-11-27T16:36:50.121Z,100687.75
2022-11-27T16:38:54.750Z,100680.59
2022-11-27T16:41:04.142Z,100681.56
2022-11-27T16:43:06.477Z,100685.19
2022-11-27T16:45:08.916Z,100682.56
2022-11-27T16:47:11.548Z,100681.66
2022-11-27T16:49:13.897Z,100682.50
2022-11-27T16:51:24.851Z,100682.53
2022-11-27T16:53:27.557Z,100683.38
2022-11-27T16:55:29.626Z,100673.47
2022-11-27T16:57:33.644Z,100679.75
2022-11-27T16:59:38.425Z,100673.59
2022-11-27T17:01:41.928Z,100672.66
2022-11-27T17:03:44.152Z,100673.69
2022-11-27T17:05:51.231Z,100670.91
2022-11-27T17:07:53.554Z,100664.72
2022-11-27T17:09:55.548Z,100669.16
2022-11-27T17:11:57.625Z,100664.81
2022-11-27T17:14:05.592Z,100660.38
2022-11-27T17:16:11.337Z,100656.81
2022-11-27T17:18:13.436Z,100652.41
2022-11-27T17:20:16.267Z,100659.59
2022-11-27T17:22:18.730Z,100670.28
2022-11-27T17:24:21.008Z,100669.44
2022-11-27T17:26:27.626Z,100669.47
2022-11-27T17:28:29.731Z,100672.09
2022-11-27T17:30:36.397Z,100660.41
2022-11-27T17:32:41.222Z,100657.72
2022-11-27T17:34:43.392Z,100662.97
2022-11-27T17:36:46.010Z,100652.28
2022-11-27T17:38:48.748Z,100659.41
2022-11-27T17:40:50.604Z,100653.16
2022-11-27T17:42:56.639Z,100658.59
2022-11-27T17:44:58.736Z,100656.78
2022-11-27T17:47:00.762Z,100654.97
2022-11-27T17:49:06.172Z,100649.50
2022-11-27T17:51:09.469Z,100653.94
2022-11-27T17:53:12.443Z,100654.88
2022-11-27T17:55:14.558Z,100652.16
2022-11-27T17:57:17.349Z,100648.63
2022-11-27T17:59:19.779Z,100651.25
2022-11-27T18:01:24.693Z,100648.53
2022-11-27T18:03:30.321Z,100636.16
2022-11-27T18:05:37.165Z,100641.44
2022-11-27T18:07:39.863Z,100639.63
2022-11-27T18:09:42.840Z,100628.94
2022-11-27T18:11:45.091Z,100631.66
2022-11-27T18:13:48.029Z,100636.25
2022-11-27T18:15:50.092Z,100630.06
2022-11-27T18:17:55.187Z,100629.19
2022-11-27T18:19:59.215Z,100630.91
2022-11-27T18:22:01.641Z,100629.25
2022-11-27T18:26:45.494Z,100627.50
2022-11-27T18:28:53.331Z,100625.66
2022-11-27T18:30:55.889Z,100627.41
2022-11-27T18:32:58.082Z,100623.91
2022-11-27T18:35:00.247Z,100624.81
2022-11-27T18:37:02.812Z,100623.84
2022-11-27T18:39:05.168Z,100621.13
2022-11-27T18:41:08.209Z,100628.25
2022-11-27T18:43:11.557Z,100624.63
2022-11-27T18:45:31.736Z,100630.91
2022-11-27T18:47:35.214Z,100625.56
2022-11-27T18:49:40.628Z,100621.13
2022-11-27T18:51:43.489Z,100620.28
2022-11-27T18:53:45.988Z,100618.53
2022-11-27T18:55:52.651Z,100623.97
2022-11-27T18:57:55.087Z,100624.72
2022-11-27T18:59:57.298Z,100613.19
2022-11-27T19:01:59.653Z,100615.81
2022-11-27T19:04:02.952Z,100619.41
2022-11-27T19:06:06.747Z,100621.22
2022-11-27T19:08:10.590Z,100610.56
2022-11-27T19:10:12.926Z,100614.06
2022-11-27T19:12:15.312Z,100621.16
2022-11-27T19:14:17.399Z,100612.25
2022-11-27T19:16:29.808Z,100609.63
2022-11-27T19:18:32.283Z,100611.31
2022-11-27T19:20:40.371Z,100608.69
2022-11-27T19:22:42.938Z,100608.66
2022-11-27T19:24:45.137Z,100607.75
2022-11-27T19:26:48.757Z,100608.63
2022-11-27T19:28:52.786Z,100607.78
2022-11-27T19:30:55.280Z,100603.41
2022-11-27T19:32:57.734Z,100615.03
2022-11-27T19:35:03.088Z,100606.94
2022-11-27T19:37:08.980Z,100600.66
2022-11-27T19:39:17.451Z,100606.09
2022-11-27T19:41:19.667Z,100615.00
2022-11-27T19:43:22.007Z,100606.03
2022-11-27T19:45:26.837Z,100606.94
2022-11-27T19:47:28.862Z,100605.19
2022-11-27T19:49:31.282Z,100608.75
2022-11-27T19:51:36.226Z,100600.78
2022-11-27T19:53:38.767Z,100600.72
2022-11-27T19:55:41.925Z,100602.53
2022-11-27T19:57:45.681Z,100603.59
2022-11-27T19:59:50.349Z,100599.06
2022-11-27T20:01:52.429Z,100603.50
2022-11-27T20:04:00.177Z,100601.69
2022-11-27T20:06:08.010Z,100601.75
2022-11-27T20:08:13.797Z,100605.34
2022-11-27T20:10:16.084Z,100608.91
2022-11-27T20:12:18.121Z,100604.38
2022-11-27T20:14:20.318Z,100609.75
2022-11-27T20:16:22.494Z,100605.28
2022-11-27T20:18:24.659Z,100600.88
2022-11-27T20:20:33.839Z,100598.25
2022-11-27T20:22:39.007Z,100599.22
2022-11-27T20:25:11.216Z,100593.88
2022-11-27T20:27:08.845Z,100596.50
2022-11-27T20:29:13.252Z,100595.56
2022-11-27T20:31:27.515Z,100590.34
2022-11-27T20:33:31.489Z,100584.84
2022-11-27T20:35:33.794Z,100582.31
2022-11-27T20:37:36.015Z,100583.16
2022-11-27T20:39:39.048Z,100584.94
2022-11-27T20:41:41.664Z,100585.81
2022-11-27T20:43:44.637Z,100584.97
2022-11-27T20:45:52.683Z,100585.94
2022-11-27T20:47:54.729Z,100576.03
2022-11-27T20:49:56.749Z,100574.19
2022-11-27T20:52:00.225Z,100578.66
2022-11-27T20:54:02.900Z,100575.16
2022-11-27T20:56:07.058Z,100568.06
2022-11-27T20:58:09.222Z,100560.91
2022-11-27T21:00:11.816Z,100570.75
2022-11-27T21:02:16.768Z,100576.09
2022-11-27T21:04:23.994Z,100553.78
2022-11-27T21:06:30.345Z,100569.81
2022-11-27T21:08:32.970Z,100563.53
2022-11-27T21:10:35.462Z,100568.88
2022-11-27T21:12:38.938Z,100564.47
2022-11-27T21:14:40.889Z,100565.38
2022-11-27T21:16:49.830Z,100566.31
2022-11-27T21:19:01.868Z,100561.88
2022-11-27T21:21:08.740Z,100561.88
2022-11-27T21:23:10.828Z,100563.63
2022-11-27T21:25:13.107Z,100569.84
2022-11-27T21:27:15.245Z,100560.94
2022-11-27T21:29:17.953Z,100561.81
2022-11-27T21:31:22.533Z,100557.44
2022-11-27T21:33:24.900Z,100554.75
2022-11-27T21:35:31.589Z,100552.03
2022-11-27T21:37:35.544Z,100552.91
2022-11-27T21:39:38.662Z,100552.06
2022-11-27T21:41:41.015Z,100554.75
2022-11-27T21:43:44.421Z,100547.63
2022-11-27T21:45:46.679Z,100551.22
2022-11-27T21:47:49.077Z,100554.75
2022-11-27T21:49:51.400Z,100554.72
2022-11-27T21:51:54.571Z,100552.09
2022-11-27T21:54:10.677Z,100542.38
2022-11-27T21:56:16.358Z,100548.53
2022-11-27T21:58:18.507Z,100543.25
2022-11-27T22:00:23.586Z,100542.31
2022-11-27T22:02:25.974Z,100538.81
2022-11-27T22:04:28.055Z,100546.81
2022-11-27T22:06:36.003Z,100530.72
2022-11-27T22:08:40.194Z,100539.72
2022-11-27T22:10:42.489Z,100540.56
2022-11-27T22:12:44.652Z,100531.66
2022-11-27T22:14:50.206Z,100533.41
2022-11-27T22:16:52.481Z,100532.47
2022-11-27T22:18:57.986Z,100528.06
2022-11-27T22:21:05.089Z,100526.25
2022-11-27T22:23:07.868Z,100530.72
2022-11-27T22:25:10.403Z,100532.53
2022-11-27T22:27:15.704Z,100528.06
2022-11-27T22:29:18.584Z,100526.25
2022-11-27T22:31:25.400Z,100521.75
2022-11-27T22:33:31.097Z,100528.06
2022-11-27T22:35:33.418Z,100531.59
2022-11-27T22:37:35.638Z,100526.19
2022-11-27T22:39:37.989Z,100523.50
2022-11-27T22:41:40.798Z,100526.25
2022-11-27T22:43:45.114Z,100528.03
2022-11-27T22:45:48.475Z,100522.66
2022-11-27T22:47:50.935Z,100523.63
2022-11-27T22:49:55.490Z,100534.28
2022-11-27T22:51:57.950Z,100526.25
2022-11-27T22:54:01.427Z,100526.25
2022-11-27T22:56:09.033Z,100528.88
2022-11-27T22:58:11.353Z,100521.78
2022-11-27T23:00:14.631Z,100517.34
2022-11-27T23:02:21.291Z,100520.84
2022-11-27T23:04:23.299Z,100523.56
2022-11-27T23:06:25.913Z,100516.41
2022-11-27T23:08:28.156Z,100521.75
2022-11-27T23:10:30.383Z,100515.53
2022-11-27T23:12:32.591Z,100515.59
2022-11-27T23:14:35.562Z,100515.59
2022-11-27T23:16:37.786Z,100510.25
2022-11-27T23:18:40.523Z,100516.44
2022-11-27T23:20:43.801Z,100519.16
2022-11-27T23:22:45.943Z,100518.28
2022-11-27T23:24:48.246Z,100515.59
2022-11-27T23:26:50.427Z,100513.78
2022-11-27T23:28:53.704Z,100506.72
2022-11-27T23:31:09.011Z,100512.97
2022-11-27T23:33:18.070Z,100513.78
2022-11-27T23:35:20.331Z,100518.28
2022-11-27T23:37:22.532Z,100504.06
2022-11-27T23:39:24.884Z,100508.59
2022-11-27T23:46:44.978Z,100505.06
2022-11-27T23:48:47.214Z,100503.22
2022-11-27T23:50:49.397Z,100495.16
2022-11-27T23:52:54.029Z,100494.34
2022-11-27T23:54:56.125Z,100497.00
2022-11-27T23:56:58.340Z,100497.94
2022-11-27T23:59:00.915Z,100497.94
